San Pedro, California
Current Conditions -  °F | °C
As of 3:47 PM on Sunday 23 Nov 2014 (Local Time) from KTOA Reporting Station
Broken Clouds Broken Clouds  
Wind Chill: 77°   Ceiling: 25000
Heat Index: 77°   Visibility: 10mi
Dew Point: 27°   Wind: 12mph
Humidity: 16%   Direction: 270°W
Pressure: 30.08"   Gusts: NA
Location:  33.74°N, 118.29°W
Report Text: KTOA 232347Z 27010KT 10SM BKN250 25/M03 A3008
Loading
Personal Weather Stations






























Interactive Weather Map New forecast layout! Learn more

10-Day Weather Forecast

Advertisements
Track Severe Weather on mobile